Time;durP1;ratioP1;P1;durP2;ratioP2;P2;SDS_P1;SDS_P2;PMS_P1;PMS_P2;Temp;Humidity;BMP_temperature;BMP_pressure;BME280_temperature;BME280_humidity;BME280_pressure;Samples;Min_cycle;Max_cycle;Signal;HPM_P1;HPM_P2
2023/01/11 00:00:47;;;;;;;1.80;1.70;;;;;;;6.57;89.89;98946.28;5046166;28;20202;-68
2023/01/11 00:03:16;;;;;;;1.87;1.77;;;;;;;6.59;89.54;98939.00;5040256;28;20556;-68
2023/01/11 00:05:43;;;;;;;1.77;1.67;;;;;;;6.61;88.85;98955.47;5053084;28;20692;-68
2023/01/11 00:08:11;;;;;;;1.70;1.60;;;;;;;6.69;88.73;98955.38;5052851;28;20563;-68
2023/01/11 00:10:39;;;;;;;1.70;1.60;;;;;;;6.65;88.93;98956.75;5054098;28;20189;-68
2023/01/11 00:13:05;;;;;;;1.67;1.57;;;;;;;6.65;88.63;98959.38;5051950;28;20193;-68
2023/01/11 00:15:32;;;;;;;1.57;1.47;;;;;;;6.65;88.70;98954.91;5052007;28;20203;-69
2023/01/11 00:18:01;;;;;;;1.80;1.70;;;;;;;6.71;89.11;98958.63;5053034;28;20620;-68
2023/01/11 00:20:28;;;;;;;1.63;1.60;;;;;;;6.87;88.69;98972.44;5052817;28;20611;-68
2023/01/11 00:22:55;;;;;;;2.57;2.43;;;;;;;6.93;87.56;98968.22;5039230;28;20224;-68
2023/01/11 00:25:21;;;;;;;1.73;1.63;;;;;;;6.95;86.92;98984.72;5033188;28;20193;-69
2023/01/11 00:27:49;;;;;;;3.40;3.03;;;;;;;6.97;86.45;98985.31;5032944;28;20199;-69
2023/01/11 00:30:17;;;;;;;2.13;2.03;;;;;;;7.09;86.15;98989.13;5040970;28;20192;-68
2023/01/11 00:32:44;;;;;;;1.60;1.50;;;;;;;7.01;84.70;98987.41;5051592;28;20258;-68
2023/01/11 00:35:10;;;;;;;1.80;1.70;;;;;;;6.95;85.00;98987.34;5052057;28;20192;-69
2023/01/11 00:37:37;;;;;;;2.20;1.60;;;;;;;7.05;84.59;98998.41;5046510;28;20707;-68
2023/01/11 00:40:05;;;;;;;1.70;1.70;;;;;;;7.08;84.86;98990.13;5048721;28;20193;-69
2023/01/11 00:48:04;;;;;;;2.27;1.53;;;;;;;7.08;83.54;98988.31;5032727;28;20181;-68
2023/01/11 00:50:33;;;;;;;2.23;2.00;;;;;;;7.23;83.36;99001.50;5032431;28;20197;-68
2023/01/11 00:53:00;;;;;;;1.73;1.70;;;;;;;7.13;84.11;98993.03;5046958;28;20246;-68
2023/01/11 00:55:27;;;;;;;1.10;1.10;;;;;;;7.18;83.09;99003.88;5034502;28;20193;-68
2023/01/11 00:57:54;;;;;;;1.67;1.20;;;;;;;7.14;82.63;98998.13;5032076;28;20665;-68
2023/01/11 01:00:22;;;;;;;1.20;1.20;;;;;;;7.21;83.30;99009.59;5032166;28;20657;-68
2023/01/11 01:02:50;;;;;;;1.23;1.23;;;;;;;7.16;83.30;99009.34;5032100;28;20677;-68
2023/01/11 01:05:17;;;;;;;1.30;1.30;;;;;;;7.12;83.49;99009.88;5035625;28;20255;-68
2023/01/11 01:07:44;;;;;;;1.07;1.07;;;;;;;7.16;83.06;99014.63;5031924;28;20673;-68
2023/01/11 01:10:13;;;;;;;1.37;1.37;;;;;;;7.06;83.79;99005.34;5038046;28;20192;-68
2023/01/11 01:15:26;;;;;;;1.20;1.20;;;;;;;6.99;84.96;99001.81;5036497;28;20199;-68
2023/01/11 01:17:54;;;;;;;1.30;1.30;;;;;;;7.04;84.53;98999.44;5031806;28;20227;-68
2023/01/11 01:20:21;;;;;;;0.90;0.90;;;;;;;7.13;84.64;99006.22;5032016;28;20193;-68
2023/01/11 01:22:48;;;;;;;2.13;1.20;;;;;;;7.03;84.05;99008.38;5032127;28;20270;-68
2023/01/11 01:25:15;;;;;;;1.33;1.33;;;;;;;6.97;84.07;99002.00;5044125;28;20258;-68
2023/01/11 01:27:42;;;;;;;1.50;1.50;;;;;;;6.98;85.08;99003.63;5052216;28;20223;-68
2023/01/11 01:30:10;;;;;;;1.53;1.47;;;;;;;6.87;84.47;98998.84;5044345;28;20189;-68
2023/01/11 01:32:38;;;;;;;1.80;1.70;;;;;;;6.89;84.39;99009.19;5049700;28;20223;-68
2023/01/11 01:35:05;;;;;;;1.60;1.50;;;;;;;6.87;84.77;99003.28;5042009;28;20190;-68
2023/01/11 01:37:32;;;;;;;2.07;1.97;;;;;;;6.90;84.18;99011.66;5031601;28;20712;-68
2023/01/11 01:39:59;;;;;;;1.57;1.57;;;;;;;6.87;84.30;99000.66;5032133;28;20191;-68
2023/01/11 01:42:25;;;;;;;1.40;1.20;;;;;;;6.95;83.71;99008.47;5032135;28;20266;-69
2023/01/11 01:45:01;;;;;;;2.27;1.90;;;;;;;6.93;83.53;99007.81;5043576;28;20185;-69
2023/01/11 01:47:43;;;;;;;4.07;1.60;;;;;;;6.81;83.35;98996.91;5040364;28;20683;-69
2023/01/11 01:50:15;;;;;;;1.53;1.37;;;;;;;6.76;83.67;99014.31;5056066;28;20252;-69
2023/01/11 01:52:46;;;;;;;2.60;2.10;;;;;;;6.72;83.17;99011.22;5051908;28;20230;-69
2023/01/11 01:55:19;;;;;;;1.50;1.50;;;;;;;6.78;83.26;99007.84;5049109;28;20180;-69
2023/01/11 01:57:45;;;;;;;1.60;1.50;;;;;;;6.76;83.05;99009.03;5053490;28;20695;-69
2023/01/11 02:00:13;;;;;;;1.63;1.53;;;;;;;6.72;81.80;99013.88;5045171;28;20193;-69
2023/01/11 02:02:43;;;;;;;1.23;1.23;;;;;;;6.73;82.14;99012.06;5035719;28;20263;-69
2023/01/11 02:05:12;;;;;;;1.20;1.20;;;;;;;6.76;80.80;99003.75;5035469;28;20315;-69
2023/01/11 02:07:42;;;;;;;1.00;1.00;;;;;;;6.73;80.77;99014.69;5038156;28;20204;-69
2023/01/11 02:10:11;;;;;;;0.90;0.90;;;;;;;6.82;80.04;99019.66;5044840;28;20187;-69
2023/01/11 02:12:41;;;;;;;0.80;0.80;;;;;;;6.76;79.94;99004.56;5035841;28;20249;-69
2023/01/11 02:15:10;;;;;;;0.90;0.90;;;;;;;6.78;80.13;99020.25;5035220;28;20186;-69
2023/01/11 02:17:37;;;;;;;0.93;0.93;;;;;;;6.92;79.76;99022.03;5035340;28;20217;-69
2023/01/11 02:20:23;;;;;;;1.10;1.10;;;;;;;6.85;80.26;99018.47;5042178;28;20619;-68
2023/01/11 02:23:15;;;;;;;0.90;0.90;;;;;;;6.87;79.31;99021.78;5055674;28;20227;-69
2023/01/11 02:26:27;;;;;;;0.90;0.90;;;;;;;6.82;79.87;99026.78;5054839;28;20588;-69
2023/01/11 02:29:03;;;;;;;0.90;0.90;;;;;;;6.85;79.68;99024.59;5055658;28;20186;-68
2023/01/11 02:31:34;;;;;;;1.03;1.03;;;;;;;6.80;79.32;99036.69;5054281;28;20190;-68
2023/01/11 02:34:13;;;;;;;1.90;0.93;;;;;;;6.86;79.61;99036.78;5055104;28;20250;-69
2023/01/11 02:36:55;;;;;;;1.10;1.10;;;;;;;6.95;79.37;99037.50;5054719;28;20209;-68
2023/01/11 02:39:31;;;;;;;1.00;1.00;;;;;;;6.99;79.84;99036.97;5040636;28;20185;-73
2023/01/11 02:45:01;;;;;;;1.00;1.00;;;;;;;6.92;80.18;99041.34;5034872;28;20186;-69
2023/01/11 02:47:34;;;;;;;0.93;0.93;;;;;;;6.80;80.95;99036.69;5048559;28;20200;-69
2023/01/11 02:50:12;;;;;;;1.10;1.10;;;;;;;6.78;80.51;99039.50;5053652;28;20186;-69
2023/01/11 02:52:47;;;;;;;2.87;2.77;;;;;;;6.84;80.91;99041.44;5055395;28;20238;-69
2023/01/11 02:55:19;;;;;;;1.00;1.00;;;;;;;6.86;80.60;99035.97;5054801;28;20245;-69
2023/01/11 02:57:48;;;;;;;1.27;1.27;;;;;;;6.85;80.46;99032.50;5054006;28;20204;-70
2023/01/11 03:00:18;;;;;;;0.80;0.80;;;;;;;6.84;79.60;99035.31;5034354;28;20197;-69
2023/01/11 03:02:45;;;;;;;1.00;1.00;;;;;;;6.86;79.50;99030.69;5053039;28;20245;-69
2023/01/11 03:05:13;;;;;;;1.70;1.07;;;;;;;6.87;79.11;99037.59;5054513;28;20251;-68
2023/01/11 03:07:54;;;;;;;1.10;1.10;;;;;;;6.87;79.25;99038.44;5053066;28;20204;-69
2023/01/11 03:10:33;;;;;;;1.23;1.23;;;;;;;6.89;79.58;99030.31;5053983;28;20193;-69
2023/01/11 03:13:13;;;;;;;1.67;1.57;;;;;;;6.96;79.96;99036.50;5054193;28;20184;-69
2023/01/11 03:16:03;;;;;;;1.07;1.07;;;;;;;6.94;79.48;99038.50;5054532;28;20182;-69
2023/01/11 03:18:43;;;;;;;0.90;0.90;;;;;;;6.91;79.80;99038.88;5049454;28;20212;-69
2023/01/11 03:21:22;;;;;;;1.10;1.10;;;;;;;6.89;80.07;99046.16;5054503;28;20188;-69
2023/01/11 03:23:59;;;;;;;0.90;0.90;;;;;;;6.80;81.46;99036.69;5054199;28;20232;-69
2023/01/11 03:26:37;;;;;;;1.90;1.47;;;;;;;6.73;83.04;99030.53;5051363;28;20343;-69
2023/01/11 03:29:13;;;;;;;2.10;2.00;;;;;;;6.62;84.21;99030.97;5034032;28;20189;-71
2023/01/11 03:31:50;;;;;;;1.50;1.40;;;;;;;6.60;84.17;99036.44;5034486;28;20614;-69
2023/01/11 03:34:22;;;;;;;1.30;1.30;;;;;;;6.49;84.66;99028.97;5033765;28;20210;-69
2023/01/11 03:36:54;;;;;;;1.40;1.40;;;;;;;6.61;84.54;99037.25;5034296;28;20259;-69
2023/01/11 03:39:27;;;;;;;1.90;1.80;;;;;;;6.63;85.47;99041.34;5047637;28;20196;-69
2023/01/11 03:41:58;;;;;;;2.10;2.00;;;;;;;6.50;85.75;99035.91;5052232;28;20266;-71
2023/01/11 03:44:30;;;;;;;1.50;1.50;;;;;;;6.32;86.53;99037.25;5049983;28;20554;-69
2023/01/11 03:47:04;;;;;;;1.93;1.83;;;;;;;6.18;87.33;99035.38;5049476;28;20189;-68
2023/01/11 03:49:35;;;;;;;1.20;1.20;;;;;;;6.19;87.86;99044.94;5033644;28;20185;-70
2023/01/11 03:52:05;;;;;;;1.60;1.53;;;;;;;6.16;87.69;99042.66;5034750;28;20192;-69
2023/01/11 03:54:33;;;;;;;1.33;1.33;;;;;;;6.19;87.93;99052.84;5039777;28;20196;-68
2023/01/11 03:57:05;;;;;;;1.53;1.53;;;;;;;6.20;87.52;99059.78;5053085;28;20605;-67
2023/01/11 03:59:32;;;;;;;1.60;1.50;;;;;;;6.22;87.30;99065.66;5053378;28;20581;-68
2023/01/11 04:02:01;;;;;;;1.60;1.60;;;;;;;6.25;87.16;99068.75;5052833;28;20193;-68
2023/01/11 04:04:28;;;;;;;1.30;1.30;;;;;;;6.30;86.43;99084.06;5033202;28;20201;-69
2023/01/11 04:06:55;;;;;;;1.63;1.60;;;;;;;6.24;87.14;99082.94;5033062;28;20193;-69
2023/01/11 04:09:22;;;;;;;1.20;1.20;;;;;;;6.31;86.47;99077.78;5032875;28;20194;-69
2023/01/11 04:11:48;;;;;;;1.90;1.53;;;;;;;6.28;86.84;99086.88;5032662;28;20193;-68
2023/01/11 04:14:15;;;;;;;1.23;1.13;;;;;;;6.35;86.36;99089.59;5032953;28;20209;-69
2023/01/11 04:16:42;;;;;;;1.20;1.20;;;;;;;6.28;86.47;99086.06;5049134;28;20250;-68
2023/01/11 04:19:10;;;;;;;1.33;1.33;;;;;;;6.28;85.51;99093.97;5053287;28;20246;-69
2023/01/11 04:21:36;;;;;;;1.43;1.43;;;;;;;6.28;85.54;99104.53;5043181;28;20197;-68
2023/01/11 04:24:03;;;;;;;1.17;1.17;;;;;;;6.29;85.32;99101.69;5033438;28;20263;-68
2023/01/11 04:26:30;;;;;;;1.77;1.67;;;;;;;6.28;85.41;99099.25;5032575;28;20193;-68
2023/01/11 04:28:57;;;;;;;1.53;1.30;;;;;;;6.30;85.39;99102.53;5032834;28;20655;-67
2023/01/11 04:31:24;;;;;;;1.30;1.30;;;;;;;6.41;85.31;99099.47;5048335;28;20615;-67
2023/01/11 04:33:50;;;;;;;1.97;1.77;;;;;;;6.42;85.02;99109.00;5052791;28;20203;-67
2023/01/11 04:36:18;;;;;;;2.07;1.97;;;;;;;6.36;85.06;99097.34;5051856;28;20193;-68
2023/01/11 04:38:45;;;;;;;1.80;1.70;;;;;;;6.28;85.94;99109.81;5052297;28;20220;-68
2023/01/11 04:43:56;;;;;;;2.07;1.97;;;;;;;6.31;86.55;99119.97;5050631;28;20254;-71
2023/01/11 04:46:24;;;;;;;2.30;2.20;;;;;;;6.35;86.42;99118.63;5052100;28;20656;-69
2023/01/11 04:48:51;;;;;;;2.30;2.10;;;;;;;6.30;87.22;99124.44;5051849;28;20244;-68
2023/01/11 04:51:19;;;;;;;1.90;1.90;;;;;;;6.22;87.12;99134.22;5046253;28;20189;-68
2023/01/11 04:53:47;;;;;;;2.03;1.93;;;;;;;6.24;87.22;99134.91;5047544;28;20200;-70
2023/01/11 04:56:13;;;;;;;2.00;1.90;;;;;;;6.19;86.96;99139.84;5052462;28;20192;-68
2023/01/11 04:58:40;;;;;;;2.03;1.93;;;;;;;6.12;87.12;99134.47;5051627;28;20228;-70
2023/01/11 05:01:10;;;;;;;1.60;1.60;;;;;;;6.27;86.25;99147.69;5050713;28;20201;-69
2023/01/11 05:03:37;;;;;;;1.67;1.67;;;;;;;6.31;86.01;99146.34;5051137;28;20543;-70
2023/01/11 05:06:05;;;;;;;1.80;1.70;;;;;;;6.32;85.79;99142.75;5051696;28;20242;-69
2023/01/11 05:08:33;;;;;;;1.83;1.70;;;;;;;6.36;86.60;99144.03;5050938;28;20256;-69
2023/01/11 05:11:02;;;;;;;2.00;1.90;;;;;;;6.34;85.94;99136.28;5049920;28;20196;-68
2023/01/11 05:13:41;;;;;;;1.83;1.73;;;;;;;6.41;85.46;99141.66;5032301;28;20252;-68
2023/01/11 05:16:09;;;;;;;1.93;1.93;;;;;;;6.36;85.48;99138.75;5031854;28;20642;-67
2023/01/11 05:18:36;;;;;;;2.00;1.90;;;;;;;6.43;85.87;99144.94;5031676;28;20266;-68
2023/01/11 05:21:05;;;;;;;2.23;2.13;;;;;;;6.42;85.95;99141.50;5045610;28;20263;-68
2023/01/11 05:23:34;;;;;;;2.23;2.13;;;;;;;6.36;85.20;99149.28;5051389;28;20240;-69
2023/01/11 05:26:01;;;;;;;2.70;2.50;;;;;;;6.41;85.41;99152.22;5051566;28;20193;-69
2023/01/11 05:28:28;;;;;;;2.97;2.77;;;;;;;6.34;85.37;99138.09;5051562;28;20196;-71
2023/01/11 05:30:55;;;;;;;3.00;2.80;;;;;;;6.38;85.80;99148.13;5049476;28;20258;-68
2023/01/11 05:33:22;;;;;;;2.47;2.37;;;;;;;6.43;85.02;99160.75;5051813;28;20620;-69
2023/01/11 05:35:48;;;;;;;2.30;2.20;;;;;;;6.40;84.63;99161.13;5051179;28;20196;-68
2023/01/11 05:38:15;;;;;;;2.83;2.60;;;;;;;6.31;84.96;99159.53;5050891;28;20888;-68
2023/01/11 05:40:43;;;;;;;3.03;2.93;;;;;;;6.33;84.85;99165.47;5050430;28;20254;-69
2023/01/11 05:43:10;;;;;;;3.20;2.90;;;;;;;6.27;84.79;99167.00;5051349;28;20196;-69
2023/01/11 05:45:37;;;;;;;3.03;2.83;;;;;;;6.25;85.26;99152.34;5050759;28;20270;-68
2023/01/11 05:48:04;;;;;;;4.10;3.80;;;;;;;6.27;85.24;99161.72;5047725;28;20208;-68
2023/01/11 05:50:30;;;;;;;7.83;7.20;;;;;;;6.28;84.83;99175.72;5030947;28;20228;-68
2023/01/11 05:52:57;;;;;;;3.43;3.13;;;;;;;6.32;85.78;99174.38;5031622;28;20562;-69
2023/01/11 05:55:24;;;;;;;3.23;3.10;;;;;;;6.28;84.80;99188.91;5031158;28;20197;-73
2023/01/11 05:57:52;;;;;;;4.07;3.87;;;;;;;6.24;84.71;99192.91;5031050;28;20773;-70
2023/01/11 06:00:19;;;;;;;4.57;4.27;;;;;;;6.24;84.71;99192.91;5031288;28;20196;-69
2023/01/11 06:02:46;;;;;;;4.87;3.60;;;;;;;6.21;84.45;99193.25;5031128;28;20669;-69
2023/01/11 06:05:13;;;;;;;4.97;4.47;;;;;;;6.20;84.24;99181.06;5031474;28;20198;-70
2023/01/11 06:07:39;;;;;;;5.20;4.90;;;;;;;6.22;84.88;99193.06;5043419;28;20259;-69
2023/01/11 06:10:07;;;;;;;5.57;5.17;;;;;;;6.27;84.05;99195.16;5033078;28;20194;-68
2023/01/11 06:12:34;;;;;;;4.50;4.20;;;;;;;6.30;84.41;99192.19;5031416;28;20257;-69
2023/01/11 06:15:02;;;;;;;4.87;4.40;;;;;;;6.35;84.56;99197.75;5030804;28;20625;-69
2023/01/11 06:17:29;;;;;;;3.40;3.20;;;;;;;6.47;83.35;99206.88;5030883;28;20247;-70
2023/01/11 06:19:55;;;;;;;3.90;3.70;;;;;;;6.35;83.10;99203.03;5034231;28;20188;-69
2023/01/11 06:22:22;;;;;;;4.97;4.57;;;;;;;6.38;83.21;99211.41;5049371;28;20201;-70
2023/01/11 06:24:48;;;;;;;6.20;5.63;;;;;;;6.46;83.29;99213.16;5051341;28;20181;-69
2023/01/11 06:27:17;;;;;;;11.03;8.50;;;;;;;6.46;82.97;99207.91;5050672;28;20189;-70
2023/01/11 06:29:43;;;;;;;14.80;8.20;;;;;;;6.52;82.51;99217.72;5051012;28;20235;-70
2023/01/11 06:32:12;;;;;;;11.73;8.40;;;;;;;6.42;82.90;99217.16;5051081;28;20746;-70
2023/01/11 06:34:39;;;;;;;7.07;6.40;;;;;;;6.50;82.76;99225.00;5054009;28;20246;-69
2023/01/11 06:37:05;;;;;;;5.27;4.77;;;;;;;6.62;82.49;99218.31;5053825;28;20189;-69
2023/01/11 06:39:32;;;;;;;3.07;2.87;;;;;;;6.59;82.44;99218.66;5054887;28;20662;-68
2023/01/11 06:41:59;;;;;;;4.00;3.10;;;;;;;6.58;82.06;99217.88;5054877;28;20571;-68
2023/01/11 06:44:25;;;;;;;3.07;2.90;;;;;;;6.65;81.79;99225.88;5053995;28;20192;-69
2023/01/11 06:46:52;;;;;;;4.23;3.13;;;;;;;6.65;81.66;99229.34;5053276;28;20299;-68
2023/01/11 06:49:20;;;;;;;3.17;3.07;;;;;;;6.62;81.86;99229.69;5054456;28;20200;-67
2023/01/11 06:51:47;;;;;;;4.00;3.70;;;;;;;6.59;82.34;99234.50;5054449;28;20190;-68
2023/01/11 06:54:14;;;;;;;5.17;4.77;;;;;;;6.59;82.64;99234.50;5055143;28;20246;-68
2023/01/11 06:56:40;;;;;;;4.63;4.37;;;;;;;6.63;82.75;99241.06;5055824;28;20247;-68
2023/01/11 06:59:07;;;;;;;4.60;4.20;;;;;;;6.51;82.90;99250.38;5053649;28;20225;-71
2023/01/11 07:01:34;;;;;;;5.37;5.03;;;;;;;6.42;83.56;99252.28;5054944;28;20192;-68
2023/01/11 07:04:00;;;;;;;5.27;4.77;;;;;;;6.35;83.70;99263.69;5054516;28;20217;-68
2023/01/11 07:06:30;;;;;;;4.67;4.27;;;;;;;6.22;84.45;99263.44;5054797;28;20202;-66
2023/01/11 07:08:58;;;;;;;5.60;5.03;;;;;;;6.14;85.45;99274.03;5034645;28;20220;-66
2023/01/11 07:11:24;;;;;;;6.50;5.87;;;;;;;6.13;85.87;99275.88;5035151;28;20285;-66
2023/01/11 07:13:51;;;;;;;6.33;5.83;;;;;;;6.17;86.32;99276.34;5034407;28;20193;-68
2023/01/11 07:16:18;;;;;;;6.07;5.03;;;;;;;6.17;86.16;99281.59;5034013;28;20243;-69
2023/01/11 07:18:44;;;;;;;5.10;4.70;;;;;;;6.14;86.33;99276.66;5048590;28;20801;-71
2023/01/11 07:21:11;;;;;;;6.23;5.63;;;;;;;6.12;86.76;99278.69;5039412;28;20252;-69
2023/01/11 07:23:39;;;;;;;7.00;6.30;;;;;;;6.17;86.96;99276.34;5036988;28;20220;-69
2023/01/11 07:26:07;;;;;;;7.27;6.50;;;;;;;6.22;86.72;99274.00;5047469;28;20213;-68
2023/01/11 07:28:34;;;;;;;6.47;5.97;;;;;;;6.37;87.21;99275.69;5050299;28;20193;-69
2023/01/11 07:31:00;;;;;;;6.47;5.83;;;;;;;6.51;85.79;99268.84;5053367;28;20728;-70
2023/01/11 07:33:27;;;;;;;6.47;5.20;;;;;;;6.66;85.51;99283.75;5052670;28;20661;-69
2023/01/11 07:35:55;;;;;;;4.60;4.30;;;;;;;6.89;84.57;99289.84;5053989;28;20195;-69
2023/01/11 07:38:22;;;;;;;4.20;4.00;;;;;;;7.04;83.46;99303.09;5046031;28;20657;-69
2023/01/11 07:40:50;;;;;;;4.53;4.20;;;;;;;7.17;82.17;99300.66;5044374;28;20193;-69
2023/01/11 07:43:18;;;;;;;4.73;4.33;;;;;;;7.28;82.75;99321.34;5053587;28;20631;-68
2023/01/11 07:45:47;;;;;;;5.20;4.90;;;;;;;7.46;81.53;99327.13;5052878;28;20197;-67
2023/01/11 07:48:19;;;;;;;7.93;4.27;;;;;;;7.70;80.75;99334.81;5052348;28;20291;-69
2023/01/11 07:50:46;;;;;;;5.20;4.80;;;;;;;8.12;79.54;99337.63;5054299;28;20189;-69
2023/01/11 07:53:13;;;;;;;6.13;5.63;;;;;;;8.56;77.43;99341.88;5053495;28;20246;-71
2023/01/11 07:55:40;;;;;;;8.53;5.23;;;;;;;8.91;76.98;99345.50;5053559;28;20188;-71
2023/01/11 07:58:11;;;;;;;5.00;3.27;;;;;;;10.29;99.53;99317.09;5051453;28;20192;-75
2023/01/11 08:00:39;;;;;;;2.77;2.30;;;;;;;11.32;82.06;99346.75;5043746;28;20184;-76
2023/01/11 08:03:06;;;;;;;4.43;3.00;;;;;;;11.45;75.31;99352.91;5047279;28;20211;-73
2023/01/11 08:05:33;;;;;;;2.93;2.73;;;;;;;11.43;66.98;99365.56;5046368;28;20201;-75
2023/01/11 08:07:59;;;;;;;3.27;2.97;;;;;;;11.35;66.14;99380.94;5038256;28;20251;-72
2023/01/11 08:10:26;;;;;;;2.77;2.57;;;;;;;11.30;70.45;99354.94;5047683;28;20252;-72
2023/01/11 08:15:41;;;;;;;2.90;2.80;;;;;;;10.99;66.53;99373.31;5036393;28;20597;-73
2023/01/11 08:18:08;;;;;;;3.30;3.10;;;;;;;10.78;66.12;99376.09;5050719;28;20198;-72
2023/01/11 08:20:35;;;;;;;4.00;3.70;;;;;;;10.54;66.30;99376.66;5052754;28;20684;-71
2023/01/11 08:23:04;;;;;;;4.80;4.40;;;;;;;10.36;67.32;99381.66;5033255;28;20275;-74
2023/01/11 08:25:31;;;;;;;5.10;3.23;;;;;;;10.32;67.94;99365.31;5044197;28;20200;-74
2023/01/11 08:28:00;;;;;;;5.90;3.90;;;;;;;10.23;69.71;99366.50;5052169;28;20192;-70
2023/01/11 08:30:26;;;;;;;4.17;3.80;;;;;;;10.29;69.12;99359.56;5049884;28;20576;-73
2023/01/11 08:32:55;;;;;;;3.67;3.37;;;;;;;10.08;66.90;99373.78;5052270;28;20283;-73
2023/01/11 08:35:23;;;;;;;4.33;4.00;;;;;;;10.02;68.09;99373.72;5051659;28;20712;-72
2023/01/11 08:37:49;;;;;;;5.17;4.67;;;;;;;10.01;67.58;99380.03;5044211;28;20249;-73
2023/01/11 08:40:16;;;;;;;2.13;2.03;;;;;;;9.78;66.79;99384.78;5032400;28;20221;-69
2023/01/11 08:42:43;;;;;;;6.80;2.43;;;;;;;9.72;66.91;99382.91;5032658;28;20189;-71
2023/01/11 08:45:10;;;;;;;3.37;2.70;;;;;;;9.69;67.01;99388.59;5036744;28;20197;-73
2023/01/11 08:47:37;;;;;;;2.37;2.07;;;;;;;9.89;66.74;99386.91;5033213;28;20205;-70
2023/01/11 08:50:07;;;;;;;2.60;2.50;;;;;;;10.04;66.87;99400.84;5051364;28;20548;-73
2023/01/11 08:52:33;;;;;;;3.40;2.43;;;;;;;10.18;66.62;99402.63;5051648;28;20195;-71
2023/01/11 08:55:00;;;;;;;3.43;2.20;;;;;;;10.18;65.81;99406.06;5050811;28;20607;-73
2023/01/11 08:57:27;;;;;;;2.00;1.77;;;;;;;9.98;65.66;99409.59;5051617;28;20193;-73
2023/01/11 08:59:54;;;;;;;1.87;1.77;;;;;;;9.90;66.09;99407.09;5047184;28;20219;-71
2023/01/11 09:02:20;;;;;;;2.73;2.53;;;;;;;9.90;66.67;99407.94;5050415;28;20197;-71
2023/01/11 09:04:47;;;;;;;3.10;2.90;;;;;;;9.89;68.18;99410.78;5046967;28;20204;-71
2023/01/11 09:07:15;;;;;;;4.50;4.10;;;;;;;9.77;68.17;99407.00;5044932;28;20290;-71
2023/01/11 09:09:43;;;;;;;5.73;3.40;;;;;;;9.55;68.97;99402.72;5050335;28;20204;-72
2023/01/11 09:12:10;;;;;;;4.93;2.80;;;;;;;9.50;70.75;99405.16;5051387;28;20235;-71
2023/01/11 09:14:37;;;;;;;2.57;2.40;;;;;;;9.44;71.34;99395.31;5047304;28;20185;-72
2023/01/11 09:17:04;;;;;;;3.73;2.83;;;;;;;9.55;71.60;99395.63;5049024;28;20197;-71
2023/01/11 09:19:32;;;;;;;3.50;3.27;;;;;;;9.64;71.96;99396.31;5051466;28;20638;-72
2023/01/11 09:22:00;;;;;;;3.70;3.10;;;;;;;9.75;72.18;99393.09;5049675;28;20723;-70
2023/01/11 09:24:29;;;;;;;7.70;2.70;;;;;;;9.85;70.86;99390.94;5045668;28;20228;-72
2023/01/11 09:26:58;;;;;;;3.37;2.47;;;;;;;10.05;69.57;99390.06;5065416;28;20204;-73
2023/01/11 09:29:25;;;;;;;3.20;3.00;;;;;;;10.13;69.44;99389.13;5051425;28;20569;-74
2023/01/11 09:31:51;;;;;;;3.63;2.60;;;;;;;10.22;68.29;99391.41;5046088;28;20254;-73
2023/01/11 09:34:19;;;;;;;3.60;3.30;;;;;;;10.23;68.02;99386.91;5045965;28;20726;-74
2023/01/11 09:36:47;;;;;;;6.23;3.83;;;;;;;10.40;67.73;99388.22;5050881;28;20275;-73
2023/01/11 09:39:17;;;;;;;3.90;3.53;;;;;;;10.40;67.46;99394.38;5048336;28;20225;-72
2023/01/11 09:42:20;;;;;;;2.20;2.10;;;;;;;10.40;65.52;99396.19;5047704;28;20277;-73
2023/01/11 09:44:51;;;;;;;2.43;2.30;;;;;;;10.42;66.02;99380.91;5047631;28;20271;-74
2023/01/11 09:47:28;;;;;;;3.87;3.40;;;;;;;10.40;66.44;99389.06;5049747;28;20242;-75
2023/01/11 09:49:58;;;;;;;2.53;2.10;;;;;;;10.10;66.37;99387.66;5046972;28;20192;-70
2023/01/11 09:52:29;;;;;;;3.73;2.20;;;;;;;10.13;66.21;99397.09;5050890;28;20219;-73
2023/01/11 09:54:58;;;;;;;2.30;2.10;;;;;;;10.09;66.25;99406.44;5043710;28;20280;-73
2023/01/11 09:57:45;;;;;;;2.80;2.30;;;;;;;10.13;65.73;99411.16;5045370;28;20267;-70
2023/01/11 10:00:20;;;;;;;9.03;2.87;;;;;;;10.28;72.56;99395.94;5049592;28;20219;-72
2023/01/11 10:03:03;;;;;;;4.37;2.67;;;;;;;10.45;66.66;99415.00;5050045;28;20232;-70
2023/01/11 10:05:50;;;;;;;4.53;3.43;;;;;;;10.41;66.54;99416.41;5031794;28;20188;-70
2023/01/11 10:08:38;;;;;;;2.77;2.30;;;;;;;10.62;65.85;99414.47;5048643;28;20580;-68
2023/01/11 10:11:15;;;;;;;2.90;2.70;;;;;;;10.71;64.92;99415.13;5054021;28;20204;-68
2023/01/11 10:13:54;;;;;;;3.73;2.80;;;;;;;10.67;65.64;99408.56;5060813;28;20747;-68
2023/01/11 10:16:34;;;;;;;4.20;2.37;;;;;;;10.76;66.32;99404.72;5074634;28;20181;-69
2023/01/11 10:19:12;;;;;;;7.00;2.97;;;;;;;10.74;66.48;99396.13;5053685;28;20202;-69
2023/01/11 10:21:45;;;;;;;7.53;3.53;;;;;;;10.87;66.47;99399.63;5035176;28;20181;-70
2023/01/11 10:24:19;;;;;;;6.13;4.57;;;;;;;10.87;66.02;99402.28;5052729;28;20720;-72
2023/01/11 10:26:49;;;;;;;4.13;3.27;;;;;;;11.00;65.91;99412.16;5055398;28;20197;-67
2023/01/11 10:29:37;;;;;;;6.07;3.60;;;;;;;10.85;64.64;99403.53;5053964;28;20693;-69
2023/01/11 10:32:29;;;;;;;2.57;2.43;;;;;;;10.94;64.98;99407.63;5043390;28;20254;-68
2023/01/11 10:35:16;;;;;;;3.70;2.60;;;;;;;10.95;65.55;99399.47;5035348;28;20217;-67
2023/01/11 10:38:01;;;;;;;2.70;2.60;;;;;;;10.70;65.05;99392.22;5071831;28;20343;-67
2023/01/11 10:40:38;;;;;;;2.87;2.63;;;;;;;10.74;64.24;99412.06;5060944;28;20212;-67
2023/01/11 10:43:15;;;;;;;3.43;3.13;;;;;;;10.70;64.61;99405.50;5042659;28;20186;-69
2023/01/11 10:45:49;;;;;;;3.07;2.87;;;;;;;10.90;64.19;99411.72;5049722;28;20215;-69
2023/01/11 10:48:22;;;;;;;3.67;3.47;;;;;;;10.94;63.76;99397.00;5054164;28;20185;-67
2023/01/11 10:51:00;;;;;;;3.43;3.23;;;;;;;11.22;63.36;99410.97;5053038;28;20185;-68
2023/01/11 10:53:32;;;;;;;4.60;3.47;;;;;;;11.34;63.26;99411.19;5054021;28;20232;-67
2023/01/11 10:56:06;;;;;;;2.63;2.33;;;;;;;11.25;61.45;99421.22;5053566;28;20194;-67
2023/01/11 10:58:49;;;;;;;3.07;2.70;;;;;;;11.35;61.03;99421.63;5054495;28;20277;-68
2023/01/11 11:01:31;;;;;;;3.07;2.77;;;;;;;11.42;62.03;99408.31;5053705;28;20719;-66
2023/01/11 11:04:15;;;;;;;3.13;2.93;;;;;;;11.57;61.58;99407.13;5055350;28;20185;-68
2023/01/11 11:06:51;;;;;;;3.50;3.30;;;;;;;11.81;60.63;99400.41;5043360;28;20257;-71
2023/01/11 11:09:26;;;;;;;7.00;5.10;;;;;;;11.99;60.65;99417.38;5036171;28;20662;-72
2023/01/11 11:11:58;;;;;;;8.33;4.80;;;;;;;11.94;60.07;99411.84;5034355;28;20187;-72
2023/01/11 11:14:35;;;;;;;4.90;4.50;;;;;;;11.92;58.91;99413.88;5034899;28;20183;-69
2023/01/11 11:17:12;;;;;;;8.27;5.70;;;;;;;11.76;59.73;99408.97;5040410;28;20256;-68
2023/01/11 11:19:39;;;;;;;4.93;3.70;;;;;;;11.70;60.56;99403.66;5053367;28;20683;-73
2023/01/11 11:22:07;;;;;;;3.60;2.90;;;;;;;11.69;61.52;99402.03;5054406;28;20560;-71
2023/01/11 11:24:37;;;;;;;3.73;3.10;;;;;;;11.79;60.86;99402.44;5053782;28;20227;-69
2023/01/11 11:27:14;;;;;;;6.60;3.20;;;;;;;11.60;60.74;99404.06;5047502;28;20706;-69
2023/01/11 11:29:43;;;;;;;3.43;3.13;;;;;;;11.50;61.60;99398.31;5035979;28;20232;-69
2023/01/11 11:32:22;;;;;;;5.87;3.13;;;;;;;11.55;63.14;99390.53;5040112;28;20256;-69
2023/01/11 11:34:50;;;;;;;8.50;3.50;;;;;;;11.50;62.33;99395.66;5052975;28;20670;-68
2023/01/11 11:37:23;;;;;;;6.60;3.30;;;;;;;11.49;61.64;99401.19;5052628;28;20239;-71
2023/01/11 11:39:50;;;;;;;8.93;4.83;;;;;;;11.55;61.59;99409.16;5052848;28;20226;-69
2023/01/11 11:42:20;;;;;;;11.67;6.50;;;;;;;11.41;62.12;99404.88;5052465;28;20248;-69
2023/01/11 11:45:12;;;;;;;11.17;8.33;;;;;;;11.42;61.47;99406.50;5052363;28;20231;-69
2023/01/11 11:47:42;;;;;;;10.57;8.67;;;;;;;11.22;61.88;99405.66;5052910;28;20201;-68
2023/01/11 11:50:23;;;;;;;34.50;10.20;;;;;;;11.20;61.70;99410.38;5053463;28;20280;-68
2023/01/11 11:52:53;;;;;;;6.73;5.83;;;;;;;11.15;62.49;99404.81;5052536;28;20644;-69
2023/01/11 11:55:26;;;;;;;4.90;4.60;;;;;;;11.17;61.81;99396.63;5052733;28;20694;-69
2023/01/11 11:57:54;;;;;;;15.97;4.17;;;;;;;11.27;62.44;99402.41;5053999;28;20198;-68
2023/01/11 12:00:26;;;;;;;18.33;5.17;;;;;;;11.36;62.72;99402.00;5051387;28;20213;-69
2023/01/11 12:02:58;;;;;;;4.90;4.40;;;;;;;11.35;62.58;99395.03;5053151;28;20251;-68
2023/01/11 12:05:25;;;;;;;4.77;3.70;;;;;;;11.33;62.80;99402.41;5052646;28;20245;-69
2023/01/11 12:07:54;;;;;;;9.33;5.83;;;;;;;11.46;62.49;99401.59;5053524;28;20566;-69
2023/01/11 12:10:23;;;;;;;11.40;5.40;;;;;;;11.43;62.56;99407.34;5052617;28;20252;-68